Time;durP1;ratioP1;P1;durP2;ratioP2;P2;SDS_P1;SDS_P2;PMS_P1;PMS_P2;Temp;Humidity;BMP_temperature;BMP_pressure;BME280_temperature;BME280_humidity;BME280_pressure;Samples;Min_cycle;Max_cycle;Signal;HPM_P1;HPM_P2
2021/10/17 00:00:49;;;;;;;;;13.00;11.00;;;;;20.38;41.61;101160.06;5049410;27;45610;-83
2021/10/17 00:03:14;;;;;;;;;12.75;11.50;;;;;20.37;40.97;101150.38;5049579;27;45364;-83
2021/10/17 00:05:40;;;;;;;;;14.25;9.00;;;;;20.43;41.50;101158.22;5060186;27;50032;-83
2021/10/17 00:08:07;;;;;;;;;16.25;11.25;;;;;20.42;41.28;101151.16;5069679;27;46933;-83
2021/10/17 00:10:33;;;;;;;;;13.00;11.25;;;;;20.37;41.30;101146.84;5066796;27;45769;-83
2021/10/17 00:13:00;;;;;;;;;18.75;12.25;;;;;20.42;41.88;101155.56;5083020;27;45251;-83
2021/10/17 00:15:25;;;;;;;;;16.75;14.25;;;;;20.42;41.59;101155.56;5082772;27;45190;-83
2021/10/17 00:17:51;;;;;;;;;16.75;13.50;;;;;20.39;41.29;101145.03;5065926;27;47384;-83
2021/10/17 00:20:18;;;;;;;;;16.50;15.00;;;;;20.33;42.57;101139.00;5076699;27;45308;-83
2021/10/17 00:22:44;;;;;;;;;12.50;10.00;;;;;20.46;41.56;101147.53;5069584;27;45327;-83
2021/10/17 00:25:10;;;;;;;;;20.00;14.00;;;;;20.46;41.02;101141.34;5065789;27;45664;-83
2021/10/17 00:27:35;;;;;;;;;11.00;10.00;;;;;20.41;41.39;101138.75;5080326;27;46148;-83
2021/10/17 00:30:01;;;;;;;;;16.25;12.25;;;;;20.43;41.44;101146.72;5065567;27;45569;-82
2021/10/17 00:32:26;;;;;;;;;13.25;12.25;;;;;20.35;41.72;101132.78;5083648;27;45467;-82
2021/10/17 00:34:52;;;;;;;;;14.25;12.75;;;;;20.41;41.83;101141.41;5075224;27;45230;-82
2021/10/17 00:37:18;;;;;;;;;14.75;12.75;;;;;20.38;41.69;101140.63;5117510;27;45171;-82
2021/10/17 00:39:44;;;;;;;;;8.75;8.50;;;;;20.30;41.67;101139.03;5103196;27;45495;-82
2021/10/17 00:42:10;;;;;;;;;10.25;9.25;;;;;20.25;41.32;101138.31;5103223;27;45227;-83
2021/10/17 00:44:38;;;;;;;;;13.75;13.75;;;;;20.20;41.84;101153.44;5103065;27;45558;-83
2021/10/17 00:47:04;;;;;;;;;16.00;11.50;;;;;20.10;41.96;101140.44;5068415;27;47512;-82
2021/10/17 00:49:29;;;;;;;;;16.75;15.00;;;;;20.13;41.81;101159.78;5082621;27;45346;-83
2021/10/17 00:51:54;;;;;;;;;14.50;14.50;;;;;20.02;42.34;101141.50;5048609;27;46381;-83
2021/10/17 00:54:20;;;;;;;;;21.50;16.50;;;;;19.99;41.72;101136.28;5048582;27;49725;-83
2021/10/17 00:56:45;;;;;;;;;18.25;15.75;;;;;19.98;41.94;101136.28;5078875;27;45412;-83
2021/10/17 00:59:11;;;;;;;;;15.50;14.50;;;;;19.96;42.33;101135.44;5058229;27;45744;-82
2021/10/17 01:01:37;;;;;;;;;15.75;15.50;;;;;19.96;42.75;101130.16;5065522;27;45258;-83
2021/10/17 01:04:02;;;;;;;;;14.00;14.00;;;;;20.07;42.48;101146.69;5065510;27;46224;-83
2021/10/17 01:06:28;;;;;;;;;15.25;15.25;;;;;20.01;42.87;101126.50;5099595;27;45619;-83
2021/10/17 01:08:54;;;;;;;;;14.00;14.00;;;;;20.10;42.41;101136.00;5102879;27;45251;-83
2021/10/17 01:11:19;;;;;;;;;16.00;15.25;;;;;20.09;42.32;101134.28;5065489;27;45271;-83
2021/10/17 01:13:45;;;;;;;;;18.50;16.75;;;;;20.06;42.84;101123.72;5065332;27;45450;-83
2021/10/17 01:16:10;;;;;;;;;17.00;15.25;;;;;20.07;42.34;101130.78;5047829;27;51931;-83
2021/10/17 01:18:35;;;;;;;;;24.25;19.00;;;;;20.03;41.67;101123.81;5065272;27;45499;-83
2021/10/17 01:21:01;;;;;;;;;15.75;15.25;;;;;20.08;42.65;101139.63;5065473;27;45766;-83
2021/10/17 01:23:26;;;;;;;;;14.25;14.25;;;;;20.16;42.64;101141.19;5058494;27;45449;-83
2021/10/17 01:25:52;;;;;;;;;17.00;14.75;;;;;20.10;42.62;101120.13;5068405;27;47989;-83
2021/10/17 01:28:17;;;;;;;;;15.25;15.25;;;;;20.09;42.05;101114.84;5071843;27;45743;-83
2021/10/17 01:30:43;;;;;;;;;17.00;13.25;;;;;20.10;42.45;101113.94;5084853;27;45454;-83
2021/10/17 01:33:08;;;;;;;;;19.00;15.25;;;;;20.12;42.25;101118.28;5075717;27;45496;-83
2021/10/17 01:35:34;;;;;;;;;16.75;16.75;;;;;20.05;42.12;101119.34;5071736;27;46928;-83
2021/10/17 01:37:59;;;;;;;;;19.00;17.00;;;;;20.01;42.25;101115.03;5075421;27;45422;-83
2021/10/17 01:40:25;;;;;;;;;16.75;14.00;;;;;20.04;42.72;101130.84;5081851;27;45931;-82
2021/10/17 01:42:50;;;;;;;;;15.75;14.75;;;;;20.02;42.69;101127.38;5071008;27;45301;-83
2021/10/17 01:45:16;;;;;;;;;20.75;18.75;;;;;20.08;43.00;101124.59;5068641;27;53036;-83
2021/10/17 01:47:48;;;;;;;;;13.75;13.25;;;;;20.15;43.01;101123.50;5064952;27;45352;-83
2021/10/17 01:50:13;;;;;;;;;17.25;17.00;;;;;20.19;43.14;101119.03;5068339;27;45438;-83
2021/10/17 01:52:39;;;;;;;;;16.50;15.25;;;;;20.25;43.10;101130.34;5051580;27;45241;-83
2021/10/17 01:55:05;;;;;;;;;18.00;15.25;;;;;20.25;42.89;101121.53;5081530;27;45523;-83
2021/10/17 01:57:30;;;;;;;;;18.00;18.00;;;;;20.21;42.63;101120.72;5057386;27;45304;-84
2021/10/17 01:59:56;;;;;;;;;15.50;14.50;;;;;20.05;42.36;101108.75;5051325;27;45388;-83
2021/10/17 02:02:21;;;;;;;;;17.50;14.75;;;;;20.06;42.72;101123.72;5074039;27;45356;-83
2021/10/17 02:04:47;;;;;;;;;16.75;16.75;;;;;19.97;42.45;101113.34;5055561;27;47966;-83
2021/10/17 02:07:12;;;;;;;;;19.50;17.75;;;;;19.93;42.88;101119.63;5071520;27;45262;-83
2021/10/17 02:09:38;;;;;;;;;21.25;16.75;;;;;19.88;42.99;101121.50;5074692;27;45344;-83
2021/10/17 02:12:03;;;;;;;;;15.75;13.75;;;;;19.92;43.49;101128.50;5079537;27;45832;-84
2021/10/17 02:14:29;;;;;;;;;15.50;13.25;;;;;19.83;42.80;101111.03;5070079;27;45303;-84
2021/10/17 02:16:54;;;;;;;;;20.00;17.00;;;;;19.86;43.38;101113.59;5071436;27;45240;-83
2021/10/17 02:19:20;;;;;;;;;18.00;16.25;;;;;19.88;43.17;101122.38;5086053;27;45272;-84
2021/10/17 02:21:45;;;;;;;;;19.00;17.00;;;;;19.84;43.25;101114.56;5067750;27;45469;-84
2021/10/17 02:24:11;;;;;;;;;18.25;16.75;;;;;19.79;43.49;101111.13;5050846;27;46744;-84
2021/10/17 02:26:39;;;;;;;;;18.25;14.75;;;;;19.71;43.69;101109.53;5060595;27;45832;-83
2021/10/17 02:29:05;;;;;;;;;17.75;16.50;;;;;19.79;42.91;101117.28;5067603;27;45477;-83
2021/10/17 02:31:30;;;;;;;;;17.00;15.25;;;;;19.67;43.12;101110.50;5074390;27;45324;-84
2021/10/17 02:33:56;;;;;;;;;21.00;16.50;;;;;19.65;43.36;101111.47;5095079;27;57075;-84
2021/10/17 02:36:21;;;;;;;;;18.50;15.25;;;;;19.70;43.66;101121.03;5088644;27;45329;-83
2021/10/17 02:38:47;;;;;;;;;17.50;16.50;;;;;19.74;43.46;101122.72;5056409;27;46815;-84
2021/10/17 02:41:12;;;;;;;;;14.50;14.00;;;;;19.82;43.53;101113.72;5068388;27;45272;-82
2021/10/17 02:43:38;;;;;;;;;20.00;16.50;;;;;19.85;43.43;101113.66;5050612;27;46896;-84
2021/10/17 02:46:03;;;;;;;;;20.50;15.75;;;;;19.85;42.78;101116.28;5084282;27;45248;-84
2021/10/17 02:48:28;;;;;;;;;19.50;16.50;;;;;19.76;43.21;101101.50;5067689;27;45262;-83
2021/10/17 02:50:55;;;;;;;;;18.50;15.50;;;;;19.83;43.29;101110.16;5050680;27;45285;-84
2021/10/17 02:53:21;;;;;;;;;19.25;16.50;;;;;19.90;43.50;101109.13;5050562;27;47052;-83
2021/10/17 02:55:46;;;;;;;;;20.75;15.75;;;;;19.94;42.66;101116.09;5050109;27;54403;-83
2021/10/17 02:58:11;;;;;;;;;17.50;16.00;;;;;19.84;43.04;101094.22;5063807;27;45702;-83
2021/10/17 03:00:37;;;;;;;;;15.75;13.75;;;;;19.87;42.98;101101.22;5071716;27;52660;-83
2021/10/17 03:03:04;;;;;;;;;17.50;16.25;;;;;19.86;43.11;101092.41;5084059;27;47932;-84
2021/10/17 03:05:29;;;;;;;;;15.75;13.50;;;;;19.88;43.26;101089.72;5102737;27;45554;-84
2021/10/17 03:07:57;;;;;;;;;15.50;14.75;;;;;19.83;42.96;101081.91;5084452;27;45640;-83
2021/10/17 03:10:23;;;;;;;;;18.25;16.25;;;;;19.89;43.13;101099.41;5102450;27;45244;-84
2021/10/17 03:12:49;;;;;;;;;17.75;14.00;;;;;19.89;43.05;101112.66;5066961;27;47159;-83
2021/10/17 03:15:15;;;;;;;;;16.00;14.75;;;;;19.81;43.19;101109.31;5077189;27;45312;-83
2021/10/17 03:17:40;;;;;;;;;17.00;16.00;;;;;19.78;43.38;101107.63;5067740;27;45256;-83
2021/10/17 03:20:06;;;;;;;;;17.50;14.50;;;;;19.79;43.48;101104.06;5076511;27;45286;-83
2021/10/17 03:22:31;;;;;;;;;16.00;16.00;;;;;19.79;43.29;101108.47;5090521;27;47980;-84
2021/10/17 03:24:57;;;;;;;;;13.25;12.25;;;;;19.69;43.62;101091.94;5077669;27;57978;-83
2021/10/17 03:27:25;;;;;;;;;16.50;14.00;;;;;19.74;43.82;101109.47;5100439;27;45322;-83
2021/10/17 03:29:50;;;;;;;;;17.50;16.50;;;;;19.70;43.46;101113.06;5070517;27;45471;-83
2021/10/17 03:32:16;;;;;;;;;14.75;14.75;;;;;19.67;43.50;101105.22;5086452;27;61526;-83
2021/10/17 03:34:42;;;;;;;;;18.00;16.50;;;;;19.68;43.64;101109.59;5086949;27;45280;-83
2021/10/17 03:37:07;;;;;;;;;16.25;14.75;;;;;19.68;43.83;101098.13;5069355;27;45472;-83
2021/10/17 03:39:35;;;;;;;;;17.75;15.50;;;;;19.69;43.42;101095.44;5066284;27;45438;-83
2021/10/17 03:42:01;;;;;;;;;18.25;15.25;;;;;19.58;43.63;101076.28;5066701;27;46913;-83
2021/10/17 03:44:26;;;;;;;;;16.75;13.25;;;;;19.64;44.02;101083.25;5083258;27;53617;-83
2021/10/17 03:46:51;;;;;;;;;15.00;13.75;;;;;19.66;43.57;101078.78;5063249;27;45894;-83
2021/10/17 03:49:17;;;;;;;;;16.00;15.75;;;;;19.62;43.39;101071.78;5076010;27;45463;-83
2021/10/17 03:51:42;;;;;;;;;24.00;21.75;;;;;19.58;43.60;101064.84;5103710;27;49220;-84
2021/10/17 03:54:08;;;;;;;;;17.00;15.50;;;;;19.59;43.50;101091.28;5066462;27;46076;-83
2021/10/17 03:56:39;;;;;;;;;13.50;13.00;;;;;19.56;43.39;101080.75;5115509;27;45305;-83
2021/10/17 03:59:05;;;;;;;;;20.25;20.25;;;;;19.61;43.45;101089.44;5083301;27;45733;-83
2021/10/17 04:01:30;;;;;;;;;21.50;16.75;;;;;19.46;43.38;101072.13;5082923;27;52599;-83
2021/10/17 04:03:56;;;;;;;;;23.25;21.00;;;;;19.49;43.83;101082.63;5101433;27;45234;-83
2021/10/17 04:06:21;;;;;;;;;20.00;19.25;;;;;19.53;43.46;101086.06;5079274;27;45251;-83
2021/10/17 04:08:46;;;;;;;;;18.25;15.00;;;;;19.59;43.78;101091.28;5092724;27;45489;-83
2021/10/17 04:11:12;;;;;;;;;17.25;14.25;;;;;19.53;43.55;101079.91;5070122;27;45671;-83
2021/10/17 04:13:37;;;;;;;;;13.00;9.25;;;;;19.49;43.71;101069.41;5083417;27;45429;-83
2021/10/17 04:16:03;;;;;;;;;18.25;15.25;;;;;19.52;43.47;101076.38;5101236;27;45485;-83
2021/10/17 04:18:28;;;;;;;;;14.25;13.25;;;;;19.56;43.48;101083.41;5102305;27;45464;-83
2021/10/17 04:20:54;;;;;;;;;14.75;14.75;;;;;19.58;44.05;101086.88;5085813;27;45482;-83
2021/10/17 04:23:19;;;;;;;;;17.50;15.00;;;;;19.59;43.76;101085.09;5077180;27;45268;-83
2021/10/17 04:25:45;;;;;;;;;15.50;15.00;;;;;19.60;43.99;101074.47;5079565;27;45320;-83
2021/10/17 04:28:10;;;;;;;;;17.00;14.25;;;;;19.62;43.91;101072.66;5071693;27;45307;-83
2021/10/17 04:30:35;;;;;;;;;16.50;13.50;;;;;19.61;43.87;101076.22;5065532;27;47003;-83
2021/10/17 04:33:04;;;;;;;;;12.00;12.00;;;;;19.61;43.89;101089.44;5082790;27;49398;-83
2021/10/17 04:35:30;;;;;;;;;13.75;13.75;;;;;19.62;43.44;101087.69;5086644;27;45490;-83
2021/10/17 04:37:56;;;;;;;;;17.50;15.75;;;;;19.53;43.58;101086.06;5054937;27;45298;-83
2021/10/17 04:40:23;;;;;;;;;16.50;16.50;;;;;19.48;43.85;101078.25;5069294;27;45570;-84
2021/10/17 04:42:48;;;;;;;;;15.25;15.25;;;;;19.54;43.35;101085.16;5082997;27;45521;-84
2021/10/17 04:45:14;;;;;;;;;17.25;15.00;;;;;19.47;43.50;101080.94;5082579;27;45445;-83
2021/10/17 04:47:39;;;;;;;;;13.75;13.00;;;;;19.32;43.77;101068.03;5065688;27;45426;-84
2021/10/17 04:50:05;;;;;;;;;17.50;16.50;;;;;19.31;44.09;101077.75;5082401;27;49179;-83
2021/10/17 04:52:30;;;;;;;;;15.75;14.50;;;;;19.32;43.94;101071.53;5082505;27;45478;-84
2021/10/17 04:54:56;;;;;;;;;19.50;19.50;;;;;19.28;43.87;101080.44;5082535;27;45421;-84
2021/10/17 04:57:21;;;;;;;;;18.25;15.75;;;;;19.32;43.79;101089.19;5091773;27;45418;-84
2021/10/17 04:59:47;;;;;;;;;20.00;18.75;;;;;19.28;44.05;101090.16;5069835;27;46021;-84
2021/10/17 05:02:12;;;;;;;;;18.25;16.00;;;;;19.22;43.92;101085.88;5065411;27;48955;-84
2021/10/17 05:04:38;;;;;;;;;17.25;14.00;;;;;19.29;44.43;101082.19;5060755;27;45244;-84
2021/10/17 05:07:03;;;;;;;;;16.00;13.25;;;;;19.25;43.67;101080.50;5065786;27;45770;-84
2021/10/17 05:09:29;;;;;;;;;18.25;17.75;;;;;19.31;44.00;101098.91;5067079;27;47455;-84
2021/10/17 05:11:54;;;;;;;;;15.75;14.25;;;;;19.29;44.49;101083.97;5093551;27;51773;-84
2021/10/17 05:14:20;;;;;;;;;12.00;12.00;;;;;19.38;44.22;101083.78;5100409;27;45212;-84
2021/10/17 05:16:45;;;;;;;;;17.00;15.00;;;;;19.39;44.54;101094.34;5082549;27;45288;-84
2021/10/17 05:19:11;;;;;;;;;15.50;15.50;;;;;19.44;44.14;101083.63;5083628;27;45258;-83
2021/10/17 05:21:36;;;;;;;;;14.75;13.75;;;;;19.48;43.52;101085.31;5085696;27;45307;-84
2021/10/17 05:24:01;;;;;;;;;17.25;16.75;;;;;19.47;43.99;101089.75;5067326;27;45293;-84
2021/10/17 05:26:27;;;;;;;;;18.75;11.00;;;;;19.45;44.23;101091.53;5077468;27;45832;-84
2021/10/17 05:28:52;;;;;;;;;12.25;12.25;;;;;19.44;44.26;101083.63;5073584;27;47138;-84
2021/10/17 05:31:18;;;;;;;;;15.75;14.50;;;;;19.46;43.41;101093.31;5068712;27;46156;-84
2021/10/17 05:33:44;;;;;;;;;13.25;11.75;;;;;19.41;44.34;101092.50;5070594;27;45416;-84
2021/10/17 05:36:09;;;;;;;;;14.25;14.25;;;;;19.38;43.95;101089.06;5051970;27;45484;-84
2021/10/17 05:38:35;;;;;;;;;17.75;14.75;;;;;19.43;43.55;101089.81;5081930;27;46345;-84
2021/10/17 05:41:22;;;;;;;;;20.00;15.75;;;;;19.41;43.40;101094.28;5085408;27;45436;-84
2021/10/17 05:43:50;;;;;;;;;11.00;11.00;;;;;19.38;44.13;101089.06;5085341;27;45262;-84
2021/10/17 05:46:16;;;;;;;;;13.00;13.00;;;;;19.37;44.18;101096.16;5104067;27;45284;-84
2021/10/17 05:48:43;;;;;;;;;16.00;13.25;;;;;19.46;44.06;101097.72;5068322;27;54353;-84
2021/10/17 05:51:09;;;;;;;;;15.25;14.00;;;;;19.47;43.79;101091.53;5052234;27;45357;-84
2021/10/17 05:53:34;;;;;;;;;18.75;14.50;;;;;19.51;44.00;101097.59;5083254;27;51560;-84
2021/10/17 05:56:00;;;;;;;;;15.25;14.50;;;;;19.50;43.72;101099.38;5077144;27;45466;-83
2021/10/17 05:58:25;;;;;;;;;15.75;14.25;;;;;19.45;43.84;101101.25;5069565;27;47536;-84
2021/10/17 06:00:50;;;;;;;;;15.25;14.25;;;;;19.34;43.88;101098.84;5084969;27;45452;-84
2021/10/17 06:03:16;;;;;;;;;16.75;14.75;;;;;19.31;44.16;101095.41;5067015;27;45306;-84
2021/10/17 06:05:41;;;;;;;;;17.25;15.25;;;;;19.34;43.86;101103.25;5095985;27;59310;-84
2021/10/17 06:08:07;;;;;;;;;17.00;14.75;;;;;19.27;43.56;101093.69;5070192;27;46938;-83
2021/10/17 06:10:32;;;;;;;;;15.75;15.25;;;;;19.24;43.96;101099.06;5083386;27;45215;-83
2021/10/17 06:12:58;;;;;;;;;15.00;14.00;;;;;19.27;44.18;101106.94;5052348;27;45244;-83
2021/10/17 06:15:23;;;;;;;;;15.25;13.50;;;;;19.31;44.09;101100.69;5060485;27;45267;-84
2021/10/17 06:17:49;;;;;;;;;32.75;27.00;;;;;19.23;43.90;101099.97;5068370;27;46717;-84
2021/10/17 06:20:14;;;;;;;;;21.50;14.50;;;;;19.35;44.19;101115.59;5078774;27;45268;-84
2021/10/17 06:22:40;;;;;;;;;15.50;15.25;;;;;19.29;43.68;101099.84;5089025;27;45259;-83
2021/10/17 06:25:06;;;;;;;;;17.50;15.50;;;;;19.26;44.06;101099.91;5072384;27;45197;-84
2021/10/17 06:27:31;;;;;;;;;14.00;13.25;;;;;19.33;43.95;101112.09;5105266;27;46204;-84
2021/10/17 06:29:57;;;;;;;;;14.50;14.50;;;;;19.33;43.94;101120.91;5124302;27;45257;-84
2021/10/17 06:32:22;;;;;;;;;16.50;14.00;;;;;19.39;43.40;101127.88;5087697;27;53256;-84
2021/10/17 06:34:47;;;;;;;;;11.00;10.50;;;;;19.40;44.32;101124.31;5097790;27;45490;-84
2021/10/17 06:37:13;;;;;;;;;18.75;16.00;;;;;19.40;43.71;101121.66;5088008;27;48568;-85
2021/10/17 06:39:38;;;;;;;;;15.75;14.00;;;;;19.47;43.79;101128.59;5105070;27;45553;-84
2021/10/17 06:42:04;;;;;;;;;13.75;13.75;;;;;19.51;43.61;101134.66;5091323;27;45421;-84
2021/10/17 06:44:30;;;;;;;;;15.75;13.75;;;;;19.53;43.62;101136.38;5089165;27;45553;-84
2021/10/17 06:46:55;;;;;;;;;16.75;15.00;;;;;19.56;43.67;101146.03;5071478;27;45418;-84
2021/10/17 06:49:20;;;;;;;;;13.00;13.00;;;;;19.53;43.61;101146.97;5067908;27;45434;-84
2021/10/17 06:51:46;;;;;;;;;14.75;14.00;;;;;19.42;43.01;101141.03;5084707;27;45769;-84
2021/10/17 06:54:11;;;;;;;;;16.75;14.75;;;;;19.35;43.51;101134.13;5084652;27;45532;-84
2021/10/17 06:56:37;;;;;;;;;14.00;13.50;;;;;19.37;43.25;101146.44;5063831;27;48331;-84
2021/10/17 06:59:02;;;;;;;;;17.75;13.00;;;;;19.35;43.50;101152.66;5050247;27;45939;-85
2021/10/17 07:01:28;;;;;;;;;15.50;14.50;;;;;19.34;43.26;101151.78;5067553;27;45261;-84
2021/10/17 07:03:53;;;;;;;;;16.25;14.75;;;;;19.31;43.33;101156.28;5067350;27;45623;-84
2021/10/17 07:06:25;;;;;;;;;13.25;13.00;;;;;19.27;43.42;101162.50;5066750;27;56653;-84
2021/10/17 07:08:50;;;;;;;;;14.75;12.50;;;;;19.29;43.73;101161.59;5077394;27;45363;-84
2021/10/17 07:11:15;;;;;;;;;17.25;16.50;;;;;19.37;43.50;101158.75;5056773;27;46245;-83
2021/10/17 07:13:41;;;;;;;;;20.00;15.00;;;;;19.33;43.63;101151.81;5059966;27;45535;-83
2021/10/17 07:16:06;;;;;;;;;15.00;13.00;;;;;19.40;43.66;101167.53;5070420;27;47204;-84
2021/10/17 07:18:32;;;;;;;;;15.75;14.00;;;;;19.36;43.28;101154.38;5077189;27;45304;-84
2021/10/17 07:20:57;;;;;;;;;14.00;12.25;;;;;19.40;43.96;101156.09;5063422;27;45185;-84
2021/10/17 07:23:23;;;;;;;;;15.25;15.00;;;;;19.43;43.68;101159.53;5060182;27;45463;-84
2021/10/17 07:25:48;;;;;;;;;14.25;12.50;;;;;19.36;43.25;101147.31;5069832;27;48233;-83
2021/10/17 07:28:14;;;;;;;;;15.25;14.75;;;;;19.35;43.32;101157.94;5087096;27;45488;-84
2021/10/17 07:30:39;;;;;;;;;15.75;14.75;;;;;19.37;43.43;101164.06;5070682;27;45477;-84
2021/10/17 07:33:04;;;;;;;;;13.50;13.00;;;;;19.39;44.23;101155.22;5093190;27;45248;-84
2021/10/17 07:35:30;;;;;;;;;14.25;14.25;;;;;19.41;43.36;101148.09;5056510;27;47335;-84
2021/10/17 07:37:57;;;;;;;;;14.00;12.00;;;;;19.50;43.65;101165.56;5070035;27;45331;-84
2021/10/17 07:40:23;;;;;;;;;12.25;12.25;;;;;19.51;43.56;101164.66;5087401;27;45394;-84
2021/10/17 07:42:48;;;;;;;;;18.00;15.75;;;;;19.48;43.30;101154.16;5077106;27;45435;-83
2021/10/17 07:45:14;;;;;;;;;15.00;14.00;;;;;19.57;43.29;101163.72;5086940;27;51285;-84
2021/10/17 07:47:39;;;;;;;;;17.25;14.00;;;;;19.66;43.79;101174.97;5063341;27;45918;-84
2021/10/17 07:50:06;;;;;;;;;15.25;15.25;;;;;19.67;43.31;101163.47;5090270;27;45355;-84
2021/10/17 07:52:31;;;;;;;;;13.75;13.75;;;;;19.64;43.42;101154.72;5072014;27;45498;-84
2021/10/17 07:54:57;;;;;;;;;14.00;12.25;;;;;19.67;42.97;101163.47;5087026;27;46043;-84
2021/10/17 07:57:22;;;;;;;;;16.25;16.25;;;;;19.68;43.02;101167.00;5076410;27;45309;-84
2021/10/17 07:59:48;;;;;;;;;16.25;16.25;;;;;19.57;42.88;101156.63;5072818;27;47992;-84
2021/10/17 08:02:13;;;;;;;;;13.50;11.75;;;;;19.56;42.94;101162.84;5066305;27;45304;-84
2021/10/17 08:04:40;;;;;;;;;17.50;16.50;;;;;19.60;42.08;101168.94;5065531;27;48482;-83
2021/10/17 08:07:05;;;;;;;;;19.00;15.75;;;;;19.52;42.84;101149.66;5086826;27;46536;-84
2021/10/17 08:09:31;;;;;;;;;12.75;9.75;;;;;19.54;42.82;101156.66;5089825;27;45537;-83
2021/10/17 08:11:57;;;;;;;;;15.75;12.75;;;;;19.53;43.05;101149.59;5077432;27;45166;-83
2021/10/17 08:14:22;;;;;;;;;15.00;15.00;;;;;19.60;42.54;101150.41;5066169;27;48038;-83
2021/10/17 08:16:47;;;;;;;;;16.00;15.00;;;;;19.69;42.66;101163.44;5112970;27;56733;-83
2021/10/17 08:19:13;;;;;;;;;13.25;10.25;;;;;19.72;42.55;101168.66;5091151;27;45456;-83
2021/10/17 08:21:38;;;;;;;;;19.00;17.75;;;;;19.75;42.61;101168.59;5083184;27;45573;-83
2021/10/17 08:24:04;;;;;;;;;17.25;14.75;;;;;19.73;42.44;101170.41;5117550;27;45406;-83
2021/10/17 08:26:29;;;;;;;;;15.50;15.25;;;;;19.79;42.48;101174.69;5075814;27;48167;-83
2021/10/17 08:28:54;;;;;;;;;18.00;15.25;;;;;19.76;42.33;101171.22;5103489;27;45769;-83
2021/10/17 08:31:20;;;;;;;;;18.50;16.00;;;;;19.79;42.63;101166.75;5096177;27;45327;-83
2021/10/17 08:33:48;;;;;;;;;19.00;16.75;;;;;19.80;42.06;101153.47;5069565;27;45570;-84
2021/10/17 08:36:13;;;;;;;;;21.50;18.50;;;;;19.86;42.03;101144.53;5075594;27;45302;-83
2021/10/17 08:38:44;;;;;;;;;15.25;13.50;;;;;19.91;41.70;101147.94;5066756;27;45785;-83
2021/10/17 08:41:10;;;;;;;;;14.25;14.25;;;;;19.99;41.91;101144.22;5086493;27;45405;-84
2021/10/17 08:43:35;;;;;;;;;17.75;16.50;;;;;20.03;41.89;101142.34;5105897;27;46238;-83
2021/10/17 08:46:01;;;;;;;;;16.75;14.50;;;;;20.12;41.52;101146.56;5070338;27;49345;-83
2021/10/17 08:48:32;;;;;;;;;18.25;15.25;;;;;20.03;42.07;101132.63;5048884;27;45425;-83
2021/10/17 08:50:58;;;;;;;;;16.75;15.75;;;;;20.13;41.63;101138.56;5066482;27;45460;-83
2021/10/17 08:53:23;;;;;;;;;15.75;15.25;;;;;20.20;41.66;101150.78;5079065;27;46024;-84
2021/10/17 08:55:54;;;;;;;;;11.25;11.00;;;;;20.21;41.72;101151.66;5065462;27;45423;-84
2021/10/17 08:58:20;;;;;;;;;18.50;18.00;;;;;20.30;41.61;101162.91;5065071;27;45261;-85
2021/10/17 09:00:45;;;;;;;;;14.75;13.25;;;;;20.36;41.37;101166.31;5048622;27;45502;-84
2021/10/17 09:03:11;;;;;;;;;14.25;14.00;;;;;20.35;41.33;101152.19;5065687;27;47080;-84
2021/10/17 09:05:46;;;;;;;;;16.50;15.25;;;;;20.41;41.49;101159.09;5083143;27;45281;-84
2021/10/17 09:08:25;;;;;;;;;17.00;14.25;;;;;20.38;41.18;101148.59;5066684;27;45272;-85
2021/10/17 09:10:50;;;;;;;;;15.75;13.75;;;;;20.48;40.76;101163.38;5049849;27;45587;-84
2021/10/17 09:13:16;;;;;;;;;16.25;14.50;;;;;20.42;40.68;101150.28;5062112;27;47069;-84
2021/10/17 09:15:42;;;;;;;;;16.50;15.25;;;;;20.38;40.54;101146.81;5083515;27;45686;-84
2021/10/17 09:18:15;;;;;;;;;17.25;15.25;;;;;20.44;40.10;101148.47;5078771;27;45213;-84
2021/10/17 09:20:46;;;;;;;;;14.50;13.25;;;;;20.54;41.03;101153.50;5083018;27;45511;-84
2021/10/17 09:23:21;;;;;;;;;12.75;12.25;;;;;20.57;40.64;101155.19;5102504;27;47153;-84
2021/10/17 09:25:49;;;;;;;;;16.00;14.00;;;;;20.49;40.00;101150.09;5120950;27;45239;-84
2021/10/17 09:28:26;;;;;;;;;15.75;14.00;;;;;20.57;40.32;101155.19;5085734;27;45366;-84
2021/10/17 09:31:09;;;;;;;;;15.00;15.00;;;;;20.56;39.64;101169.38;5102191;27;45500;-83
2021/10/17 09:34:01;;;;;;;;;13.75;12.75;;;;;20.55;40.57;101168.50;5069369;27;48159;-83
2021/10/17 09:36:32;;;;;;;;;16.50;14.00;;;;;20.55;39.95;101160.56;5078137;27;45293;-83
2021/10/17 09:41:34;;;;;;;;;13.50;13.00;;;;;20.63;40.72;101157.72;5074344;27;45478;-83
2021/10/17 09:44:00;;;;;;;;;19.00;17.25;;;;;20.67;40.09;101156.69;5081188;27;47389;-83
2021/10/17 09:46:27;;;;;;;;;19.75;14.25;;;;;20.67;39.85;101156.69;5100105;27;45209;-83
2021/10/17 09:48:52;;;;;;;;;14.75;14.25;;;;;20.70;39.83;101146.03;5083203;27;45403;-84
2021/10/17 09:51:29;;;;;;;;;18.75;14.00;;;;;20.67;39.97;101131.97;5100274;27;45367;-84
2021/10/17 09:54:00;;;;;;;;;15.50;13.75;;;;;20.75;39.86;101140.59;5088623;27;47367;-83
2021/10/17 09:56:43;;;;;;;;;15.25;13.25;;;;;20.76;39.41;101140.56;5070858;27;54239;-83
2021/10/17 09:59:11;;;;;;;;;15.75;14.00;;;;;20.70;39.48;101131.91;5119897;27;45287;-84
2021/10/17 10:01:37;;;;;;;;;18.00;16.00;;;;;20.66;39.42;101117.84;5102328;27;45204;-83
2021/10/17 10:04:04;;;;;;;;;15.50;15.25;;;;;20.75;39.66;101137.94;5101916;27;47646;-84
2021/10/17 10:06:29;;;;;;;;;14.00;11.25;;;;;20.69;39.89;101117.78;5067795;27;45428;-83
2021/10/17 10:09:00;;;;;;;;;18.00;15.50;;;;;20.73;39.51;101131.81;5065398;27;45376;-83
2021/10/17 10:11:30;;;;;;;;;12.75;12.25;;;;;20.83;39.74;101147.44;5084890;27;45445;-83
2021/10/17 10:14:02;;;;;;;;;14.25;14.00;;;;;20.78;39.04;101138.75;5085084;27;46289;-82
2021/10/17 10:16:28;;;;;;;;;13.75;12.25;;;;;20.79;39.97;101134.31;5068152;27;45455;-82
2021/10/17 10:19:08;;;;;;;;;15.75;12.25;;;;;20.93;39.64;101141.88;5068109;27;45426;-82
2021/10/17 10:21:35;;;;;;;;;13.25;13.25;;;;;20.85;39.02;101124.41;5073165;27;45258;-83
2021/10/17 10:24:02;;;;;;;;;14.00;9.00;;;;;20.93;39.06;101134.78;5090292;27;47034;-80
2021/10/17 10:26:29;;;;;;;;;13.75;12.25;;;;;20.98;38.92;101134.69;5062920;27;45502;-88
2021/10/17 10:29:05;;;;;;;;;15.50;15.25;;;;;20.92;38.55;101132.19;5048487;27;45385;-88
2021/10/17 10:34:55;;;;;;;;;13.25;12.00;;;;;21.01;39.29;101135.44;5104087;27;46500;-85
2021/10/17 10:37:25;;;;;;;;;15.50;13.50;;;;;20.94;39.18;101125.03;5087080;27;45509;-91
2021/10/17 10:40:00;;;;;;;;;14.00;13.50;;;;;21.09;38.84;101143.22;5067651;27;45531;-82
2021/10/17 10:42:35;;;;;;;;;14.50;13.50;;;;;21.10;38.60;101139.63;5103529;27;45521;-91
2021/10/17 10:45:19;;;;;;;;;15.00;13.00;;;;;21.10;38.80;101135.19;5102783;27;45486;-82
2021/10/17 10:47:44;;;;;;;;;13.75;11.75;;;;;21.11;38.81;101146.69;5090862;27;45242;-90
2021/10/17 10:50:18;;;;;;;;;11.00;11.00;;;;;21.10;38.66;101139.63;5085194;27;45260;-83
2021/10/17 10:52:44;;;;;;;;;12.25;11.00;;;;;21.08;38.45;101142.34;5074707;27;45663;-85
2021/10/17 10:55:49;;;;;;;;;11.50;10.75;;;;;21.10;38.73;101150.25;5050992;27;48170;-91
2021/10/17 10:58:55;;;;;;;;;12.00;12.00;;;;;21.06;38.04;101136.22;5101225;27;45355;-90
2021/10/17 11:02:20;;;;;;;;;15.25;14.75;;;;;21.02;37.45;101123.06;4988180;28;45614;-88
2021/10/17 11:04:49;;;;;;;;;17.25;15.00;;;;;21.07;37.51;101135.28;5007216;28;45332;-89
2021/10/17 11:07:21;;;;;;;;;12.50;12.50;;;;;20.96;37.23;101117.94;5001534;28;46258;-92
2021/10/17 11:09:51;;;;;;;;;15.75;14.00;;;;;20.92;37.32;101114.47;5042001;27;45233;-91
2021/10/17 11:12:39;;;;;;;;;13.50;10.50;;;;;20.97;37.36;101136.47;5107867;27;45355;-87
2021/10/17 11:15:08;;;;;;;;;13.00;11.75;;;;;20.93;37.60;101139.22;5094332;27;45300;-91